Strona główna
METAR-TAF:

METAR-TAF

Lotnisko :

York Airport

York, Pensylwania, Stany Zjednoczone

Szerokość geograficzna: 39-55-10N, Długość geograficzna: 076-52-37W, wysokość: 146 m

Aktualna obserwacja pogody

Raport powstał 11 minut temu, godzina 08:53 UTC
Wiatr 4 kt od wschód
Temperatura 19°C
Wilgotność 88%
Ciśnienie 1019 hPa
Widzialność: 16.1 km
Zachmurzenie całkowite na wysokości 2200 ft

METAR: KTHV 200853Z AUTO 08004KT 10SM OVC022 19/17 A3010 RMK AO2 SLP193 60000 T01890172 53005

czas: 05:04 (09:04 UTC)


TAF: brakujący

Obserwacja i prognoza pogody dla ponad 4000 lotnisk (raport METAR i TAF).

Dostępne stacje oznaczono żółtymi i czerwonymi punktami na mapie.

Najedź kursorem aby zobaczyć nazwę stacji.

Kliknij aby zobaczyć obserwacje i prognozy pogody.

Aby zmienić mapę: kliknij na zielony przycisk z czarnym krzyżykiem, aby powiększyć; na zielony przycisk z myślnikiem, aby pomniejszyć; na zielone strzałki, aby przejść do map sąsiednich.


METAR-TAF: